Time;durP1;ratioP1;P1;durP2;ratioP2;P2;SDS_P1;SDS_P2;PMS_P1;PMS_P2;Temp;Humidity;BMP_temperature;BMP_pressure;BME280_temperature;BME280_humidity;BME280_pressure;Samples;Min_cycle;Max_cycle;Signal;HPM_P1;HPM_P2
2023/05/19 03:01:55;;;;;;;20.47;19.13;;;11.10;99.90;;;;;;5284829;23;20234;-81
2023/05/19 03:04:21;;;;;;;14.10;13.10;;;11.00;99.90;;;;;;4947151;29;20185;-80
2023/05/19 03:06:46;;;;;;;11.63;10.70;;;11.00;99.90;;;;;;4962126;29;20186;-80
2023/05/19 03:09:13;;;;;;;9.30;8.50;;;11.00;99.90;;;;;;4962229;29;20185;-79
2023/05/19 03:11:39;;;;;;;8.47;7.80;;;10.90;99.90;;;;;;4961218;29;20650;-80
2023/05/19 03:14:04;;;;;;;9.87;7.63;;;10.90;99.90;;;;;;4990824;23;20244;-77
2023/05/19 03:16:31;;;;;;;6.57;5.80;;;10.80;99.90;;;;;;4973071;28;20648;-77
2023/05/19 03:18:57;;;;;;;6.23;5.63;;;10.70;99.90;;;;;;4951131;28;20189;-77
2023/05/19 03:21:23;;;;;;;7.23;5.70;;;10.70;99.90;;;;;;4972088;28;20196;-77
2023/05/19 03:23:49;;;;;;;8.33;7.60;;;10.60;99.90;;;;;;4971157;28;20215;-77
2023/05/19 03:26:14;;;;;;;11.23;10.27;;;10.50;99.90;;;;;;4972785;28;20189;-77
2023/05/19 03:28:40;;;;;;;14.07;12.93;;;10.50;99.90;;;;;;4955684;28;20765;-77
2023/05/19 03:31:06;;;;;;;16.63;15.53;;;10.40;99.90;;;;;;4970304;28;20696;-77
2023/05/19 03:33:32;;;;;;;18.60;14.27;;;10.40;99.90;;;;;;4952819;28;20541;-76
2023/05/19 03:35:57;;;;;;;14.60;13.70;;;10.40;99.90;;;;;;4970316;28;20620;-76
2023/05/19 03:38:23;;;;;;;12.40;11.17;;;10.30;99.90;;;;;;4942254;29;20189;-76
2023/05/19 03:40:49;;;;;;;11.40;10.53;;;10.40;99.90;;;;;;4957075;28;20182;-76
2023/05/19 03:43:16;;;;;;;9.60;8.53;;;10.30;99.90;;;;;;4939047;29;20574;-76
2023/05/19 03:45:41;;;;;;;9.50;8.53;;;10.30;99.90;;;;;;4939067;29;20182;-77
2023/05/19 03:48:07;;;;;;;10.00;9.03;;;10.30;99.90;;;;;;4949709;28;20657;-76
2023/05/19 03:50:33;;;;;;;10.67;9.97;;;10.30;99.90;;;;;;4975438;28;20208;-76
2023/05/19 03:53:02;;;;;;;12.07;10.97;;;10.30;99.90;;;;;;4975301;28;20285;-76
2023/05/19 03:55:28;;;;;;;11.47;10.47;;;10.30;99.90;;;;;;4957752;28;20688;-76
2023/05/19 03:57:55;;;;;;;18.07;16.77;;;10.30;99.90;;;;;;4963823;28;20230;-77
2023/05/19 04:00:21;;;;;;;18.00;15.30;;;10.30;99.90;;;;;;4938753;29;20189;-76
2023/05/19 04:02:46;;;;;;;19.50;17.83;;;10.30;99.90;;;;;;4955666;29;20189;-78
2023/05/19 04:05:13;;;;;;;18.73;17.47;;;10.30;99.90;;;;;;4962499;29;20189;-78
2023/05/19 04:07:40;;;;;;;22.90;21.37;;;10.30;99.90;;;;;;4945566;29;20305;-78
2023/05/19 04:10:06;;;;;;;29.90;28.00;;;10.30;99.90;;;;;;4956771;29;20221;-76
2023/05/19 04:12:32;;;;;;;27.73;25.87;;;10.30;99.90;;;;;;4951714;28;20185;-77
2023/05/19 04:14:58;;;;;;;15.83;14.33;;;10.30;99.90;;;;;;4985325;28;20289;-78
2023/05/19 04:17:25;;;;;;;16.90;13.20;;;10.40;99.90;;;;;;4969550;28;20181;-78
2023/05/19 04:19:53;;;;;;;15.53;14.57;;;10.40;99.90;;;;;;4957694;29;20264;-78
2023/05/19 04:22:19;;;;;;;12.47;11.17;;;10.40;99.90;;;;;;4939084;29;20189;-77
2023/05/19 04:24:45;;;;;;;9.07;8.37;;;10.50;99.90;;;;;;4955063;29;20205;-76
2023/05/19 04:27:11;;;;;;;8.60;7.73;;;10.60;99.90;;;;;;4941661;28;20192;-77
2023/05/19 04:29:40;;;;;;;9.37;8.43;;;10.60;99.90;;;;;;4973844;28;20189;-77
2023/05/19 04:32:06;;;;;;;8.93;7.67;;;10.80;99.90;;;;;;4957656;28;20253;-77
2023/05/19 04:34:34;;;;;;;7.37;6.67;;;10.90;99.90;;;;;;4977155;28;20197;-77
2023/05/19 04:37:00;;;;;;;8.57;6.00;;;10.90;99.90;;;;;;4975460;28;20209;-77
2023/05/19 04:39:26;;;;;;;10.80;7.13;;;11.00;99.90;;;;;;4960316;28;20220;-78
2023/05/19 04:41:55;;;;;;;10.03;8.20;;;11.10;99.90;;;;;;4957008;28;20260;-69
2023/05/19 04:44:21;;;;;;;20.27;18.87;;;11.20;99.90;;;;;;4973804;28;20231;-69
2023/05/19 04:46:47;;;;;;;32.30;30.30;;;11.30;99.90;;;;;;4954625;28;20185;-69
2023/05/19 04:49:13;;;;;;;45.47;42.70;;;11.40;99.90;;;;;;4954935;28;20186;-70
2023/05/19 04:51:40;;;;;;;47.30;44.30;;;11.60;99.90;;;;;;4937677;29;20240;-69
2023/05/19 04:54:09;;;;;;;14.63;13.43;;;11.70;99.90;;;;;;4937193;29;20292;-69
2023/05/19 04:56:35;;;;;;;10.73;8.13;;;11.80;99.90;;;;;;4954861;29;20197;-70
2023/05/19 04:59:01;;;;;;;9.03;6.63;;;12.10;99.90;;;;;;4954009;29;20201;-70
2023/05/19 05:01:27;;;;;;;11.20;7.10;;;12.20;99.90;;;;;;4963422;28;20189;-70
2023/05/19 05:03:54;;;;;;;17.27;7.40;;;12.50;99.90;;;;;;4973540;28;20600;-69
2023/05/19 05:06:21;;;;;;;7.57;6.00;;;12.60;99.90;;;;;;4956599;28;20189;-69
2023/05/19 05:08:47;;;;;;;6.57;5.13;;;12.80;99.90;;;;;;4973286;28;20181;-70
2023/05/19 05:11:14;;;;;;;10.43;6.30;;;13.00;99.90;;;;;;4972066;28;20239;-70
2023/05/19 05:13:40;;;;;;;11.70;10.80;;;13.10;99.90;;;;;;4973722;28;20212;-68
2023/05/19 05:16:07;;;;;;;20.73;19.50;;;13.40;99.90;;;;;;4973474;28;20221;-68
2023/05/19 05:18:33;;;;;;;16.93;15.43;;;13.70;99.90;;;;;;4956068;28;20264;-69
2023/05/19 05:21:00;;;;;;;14.77;13.37;;;13.90;99.90;;;;;;4955716;28;20180;-69
2023/05/19 05:23:26;;;;;;;27.03;25.33;;;14.20;99.90;;;;;;4971971;28;20216;-69
2023/05/19 05:25:52;;;;;;;38.53;36.33;;;14.60;99.90;;;;;;4956311;28;20189;-69
2023/05/19 05:28:18;;;;;;;14.63;13.37;;;14.90;99.90;;;;;;4973276;28;20185;-69
2023/05/19 05:30:45;;;;;;;12.20;8.90;;;15.10;99.90;;;;;;4970670;28;20393;-70
2023/05/19 05:33:11;;;;;;;11.10;10.17;;;15.50;99.90;;;;;;4921337;29;20197;-72
2023/05/19 05:35:37;;;;;;;12.13;9.93;;;16.00;99.90;;;;;;4937116;29;20189;-68
2023/05/19 05:38:02;;;;;;;13.87;12.80;;;16.20;99.90;;;;;;4936472;29;20178;-68
2023/05/19 05:40:28;;;;;;;11.23;10.33;;;16.50;99.90;;;;;;4954092;28;20194;-68
2023/05/19 05:42:55;;;;;;;13.03;11.83;;;16.60;99.90;;;;;;4970860;28;20193;-69
2023/05/19 05:45:24;;;;;;;11.57;10.20;;;16.10;99.90;;;;;;4955781;28;20188;-69
2023/05/19 05:47:50;;;;;;;12.00;11.20;;;15.90;99.90;;;;;;4972922;28;20189;-69
2023/05/19 05:50:17;;;;;;;13.63;12.27;;;16.10;99.90;;;;;;4973093;28;20189;-68
2023/05/19 05:52:46;;;;;;;10.40;9.60;;;16.50;99.90;;;;;;4954856;28;20272;-68
2023/05/19 05:55:13;;;;;;;9.07;7.00;;;17.20;99.90;;;;;;4953640;29;20178;-69
2023/05/19 05:57:42;;;;;;;10.57;6.90;;;17.60;99.90;;;;;;4953306;28;20178;-68
2023/05/19 06:00:14;;;;;;;7.53;6.80;;;17.70;99.90;;;;;;4936186;29;20185;-69
2023/05/19 06:02:47;;;;;;;11.70;10.50;;;17.60;99.90;;;;;;4954633;28;20185;-69
2023/05/19 06:05:13;;;;;;;13.00;12.10;;;17.50;99.90;;;;;;4933198;29;20186;-70
2023/05/19 06:07:40;;;;;;;8.10;7.50;;;17.50;99.90;;;;;;4916883;29;20190;-68
2023/05/19 06:10:07;;;;;;;7.23;5.77;;;17.10;99.90;;;;;;4917582;29;20190;-70
2023/05/19 06:12:34;;;;;;;6.93;6.27;;;16.90;99.90;;;;;;4939405;28;20177;-70
2023/05/19 06:15:01;;;;;;;10.80;9.57;;;17.20;99.90;;;;;;4961348;28;20229;-69
2023/05/19 06:17:27;;;;;;;13.80;12.73;;;18.10;99.90;;;;;;4953482;29;20280;-70
2023/05/19 06:19:53;;;;;;;6.75;5.70;;;18.80;99.90;;;;;;4953618;29;20253;-71
2023/05/19 06:22:19;;;;;;;7.30;6.53;;;19.10;99.90;;;;;;4966512;28;20313;-70
2023/05/19 06:24:44;;;;;;;8.55;8.02;;;18.60;99.90;;;;;;4973324;28;20233;-69
2023/05/19 06:27:10;;;;;;;16.85;15.55;;;17.50;99.90;;;;;;4972325;28;20206;-69
2023/05/19 06:29:37;;;;;;;10.80;10.00;;;16.90;99.90;;;;;;4972348;28;20208;-74
2023/05/19 06:32:02;;;;;;;6.23;5.07;;;16.50;99.90;;;;;;4943488;29;20248;-74
2023/05/19 06:34:28;;;;;;;9.27;8.20;;;15.90;99.90;;;;;;4953268;29;20225;-75
2023/05/19 06:36:54;;;;;;;13.30;12.40;;;15.80;99.90;;;;;;4935543;29;20178;-73
2023/05/19 06:39:20;;;;;;;16.40;15.07;;;15.40;99.90;;;;;;4935848;29;20730;-72
2023/05/19 06:41:46;;;;;;;13.03;11.93;;;15.40;99.90;;;;;;4961985;28;20181;-72
2023/05/19 06:44:11;;;;;;;12.63;11.70;;;15.30;99.90;;;;;;4955040;28;20208;-72
2023/05/19 06:46:37;;;;;;;12.20;11.20;;;15.40;99.90;;;;;;4954927;28;20563;-73
2023/05/19 06:49:03;;;;;;;13.43;11.07;;;15.40;99.90;;;;;;4972065;28;20287;-71
2023/05/19 06:51:29;;;;;;;11.40;10.30;;;15.40;99.90;;;;;;4946523;29;20202;-73
2023/05/19 06:53:54;;;;;;;11.53;10.43;;;15.40;99.90;;;;;;4935690;29;20308;-72
2023/05/19 06:56:21;;;;;;;13.20;10.70;;;15.50;99.90;;;;;;4952817;29;20267;-72
2023/05/19 06:58:47;;;;;;;11.67;10.70;;;15.60;99.90;;;;;;4952545;29;20181;-71
2023/05/19 07:01:13;;;;;;;11.87;10.80;;;15.60;99.90;;;;;;4957930;28;20276;-66
2023/05/19 07:03:39;;;;;;;11.63;10.73;;;15.60;99.90;;;;;;4971138;28;20215;-66
2023/05/19 07:06:04;;;;;;;11.10;9.47;;;15.50;99.90;;;;;;4971810;28;20575;-67
2023/05/19 07:08:30;;;;;;;10.60;9.60;;;15.50;99.90;;;;;;4971449;28;20223;-68
2023/05/19 07:10:56;;;;;;;13.47;12.67;;;15.80;99.90;;;;;;4974134;28;20695;-68
2023/05/19 07:13:21;;;;;;;14.97;11.47;;;16.30;99.90;;;;;;4952267;28;20216;-70
2023/05/19 07:15:47;;;;;;;13.57;12.13;;;16.30;99.90;;;;;;4958460;28;20571;-69
2023/05/19 07:18:14;;;;;;;13.87;12.90;;;16.20;99.90;;;;;;4938184;29;20268;-70
2023/05/19 07:20:40;;;;;;;13.10;12.20;;;15.70;99.90;;;;;;4956407;29;20569;-69
2023/05/19 07:23:05;;;;;;;13.10;11.93;;;15.40;99.90;;;;;;4955499;28;20304;-69
2023/05/19 07:25:32;;;;;;;13.80;12.67;;;15.40;99.90;;;;;;4938618;29;20285;-68
2023/05/19 07:27:58;;;;;;;12.70;11.60;;;15.50;99.90;;;;;;4938981;29;20193;-69
2023/05/19 07:30:26;;;;;;;12.67;11.83;;;15.50;99.90;;;;;;4938822;29;20209;-70
2023/05/19 07:32:52;;;;;;;12.83;11.30;;;15.50;99.90;;;;;;4969060;28;20189;-70
2023/05/19 07:35:21;;;;;;;11.83;10.63;;;15.50;99.90;;;;;;4975589;28;20192;-69
2023/05/19 07:37:48;;;;;;;13.37;12.23;;;15.60;99.90;;;;;;4975398;28;20703;-70
2023/05/19 07:40:13;;;;;;;11.63;10.53;;;15.70;99.90;;;;;;4975759;28;20200;-70
2023/05/19 07:42:40;;;;;;;10.77;9.70;;;15.40;99.90;;;;;;4964431;28;20213;-70
2023/05/19 07:45:06;;;;;;;9.33;8.17;;;15.30;99.90;;;;;;4939181;29;20178;-70
2023/05/19 07:47:32;;;;;;;6.23;5.73;;;15.00;99.90;;;;;;4955947;29;20182;-69
2023/05/19 07:49:58;;;;;;;7.33;6.00;;;14.70;99.90;;;;;;4939027;29;20285;-70
2023/05/19 07:52:23;;;;;;;9.03;6.63;;;14.70;99.90;;;;;;4964669;28;20337;-70
2023/05/19 07:54:49;;;;;;;6.50;5.93;;;14.90;99.90;;;;;;4977717;28;20221;-71
2023/05/19 07:57:15;;;;;;;9.57;8.57;;;15.20;99.90;;;;;;4976898;28;20185;-71
2023/05/19 07:59:41;;;;;;;12.63;11.50;;;15.50;99.90;;;;;;4976275;28;20177;-70
2023/05/19 08:02:07;;;;;;;11.93;10.87;;;15.70;99.90;;;;;;4952864;29;20182;-69
2023/05/19 08:04:32;;;;;;;12.53;11.33;;;15.80;99.90;;;;;;4955997;29;20202;-70
2023/05/19 08:06:58;;;;;;;12.90;11.73;;;15.90;99.90;;;;;;4955664;29;20193;-70
2023/05/19 08:09:24;;;;;;;12.63;11.53;;;15.90;99.90;;;;;;4955822;29;20182;-71
2023/05/19 08:11:50;;;;;;;14.73;13.60;;;15.90;99.90;;;;;;4959389;28;20216;-70
2023/05/19 08:14:15;;;;;;;14.73;13.47;;;16.00;99.90;;;;;;4974891;28;20220;-71
2023/05/19 08:16:42;;;;;;;12.63;11.73;;;16.10;99.90;;;;;;4957822;28;20177;-70
2023/05/19 08:19:08;;;;;;;13.00;11.90;;;16.30;99.90;;;;;;4974481;28;20637;-69
2023/05/19 08:21:34;;;;;;;13.63;12.53;;;16.20;99.90;;;;;;4955994;28;20195;-69
2023/05/19 08:24:00;;;;;;;14.17;13.17;;;16.10;99.90;;;;;;4955643;29;20624;-69
2023/05/19 08:26:27;;;;;;;15.53;14.33;;;16.10;99.90;;;;;;4938493;29;20189;-69
2023/05/19 08:28:53;;;;;;;15.23;13.93;;;15.90;99.90;;;;;;4955272;29;20606;-69
2023/05/19 08:31:19;;;;;;;15.23;13.60;;;15.70;99.90;;;;;;4955660;29;20206;-69
2023/05/19 08:33:45;;;;;;;12.40;11.57;;;15.50;99.90;;;;;;4973859;28;20224;-69
2023/05/19 08:36:11;;;;;;;11.17;10.27;;;15.40;99.90;;;;;;4974656;28;20191;-69
2023/05/19 08:38:36;;;;;;;12.33;11.33;;;15.50;99.90;;;;;;4974860;28;20268;-69
2023/05/19 08:41:02;;;;;;;11.30;10.43;;;15.60;99.90;;;;;;4958153;28;20623;-69
2023/05/19 08:43:28;;;;;;;10.90;10.00;;;15.60;99.90;;;;;;4958088;28;20209;-68
2023/05/19 08:45:54;;;;;;;9.23;8.33;;;15.40;99.90;;;;;;4974348;28;20177;-69
2023/05/19 08:48:21;;;;;;;8.73;7.57;;;15.20;99.90;;;;;;4974098;28;20236;-68
2023/05/19 08:51:14;;;;;;;9.63;8.83;;;15.20;99.90;;;;;;4974418;28;20212;-69
2023/05/19 08:53:45;;;;;;;11.23;10.30;;;15.40;99.90;;;;;;4956595;28;20237;-69
2023/05/19 08:56:16;;;;;;;12.07;11.37;;;15.80;99.90;;;;;;4955090;29;20185;-69
2023/05/19 08:58:44;;;;;;;12.30;11.33;;;15.90;99.90;;;;;;4954606;29;20713;-69
2023/05/19 09:01:15;;;;;;;10.73;10.00;;;15.60;99.90;;;;;;4954998;29;20221;-70
2023/05/19 09:03:43;;;;;;;9.67;8.83;;;15.40;99.90;;;;;;4972144;28;20213;-69
2023/05/19 09:06:12;;;;;;;11.47;10.67;;;15.30;99.90;;;;;;4974187;28;20181;-69
2023/05/19 09:08:39;;;;;;;11.50;10.70;;;15.50;99.90;;;;;;4973754;28;20189;-69
2023/05/19 09:11:05;;;;;;;11.80;10.80;;;15.60;99.90;;;;;;4973902;28;20215;-68
2023/05/19 09:13:31;;;;;;;13.17;12.17;;;15.80;99.90;;;;;;4990694;23;20220;-73
2023/05/19 09:15:58;;;;;;;16.13;15.03;;;16.10;99.90;;;;;;5012926;28;20184;-71
2023/05/19 09:18:25;;;;;;;12.53;11.57;;;16.50;99.90;;;;;;4994722;28;20250;-72
2023/05/19 09:20:59;;;;;;;13.67;11.17;;;16.80;99.90;;;;;;5012978;28;20237;-73
2023/05/19 09:23:30;;;;;;;13.87;12.57;;;16.80;99.90;;;;;;4991212;28;20286;-72
2023/05/19 09:25:56;;;;;;;6.20;5.63;;;17.10;99.90;;;;;;4993346;28;20196;-72
2023/05/19 09:28:31;;;;;;;7.13;5.73;;;17.40;99.90;;;;;;4976317;28;20188;-72
2023/05/19 09:31:02;;;;;;;6.33;5.03;;;17.20;99.90;;;;;;4995316;28;20207;-72
2023/05/19 09:33:28;;;;;;;5.30;4.80;;;17.20;99.90;;;;;;4977486;28;20825;-72
2023/05/19 09:35:55;;;;;;;4.90;4.50;;;16.90;99.90;;;;;;4956392;28;20177;-72
2023/05/19 09:38:23;;;;;;;6.57;5.10;;;16.90;99.90;;;;;;4956106;28;20199;-72
2023/05/19 09:40:50;;;;;;;5.07;4.70;;;16.90;99.90;;;;;;4973640;28;20188;-72
2023/05/19 09:43:16;;;;;;;7.83;6.13;;;16.80;99.90;;;;;;4986469;28;20184;-72
2023/05/19 09:45:41;;;;;;;13.43;5.27;;;16.90;99.90;;;;;;4993109;28;20211;-72
2023/05/19 09:48:07;;;;;;;9.60;5.00;;;17.10;99.90;;;;;;4975310;28;20619;-72
2023/05/19 09:50:34;;;;;;;8.73;5.93;;;16.80;99.90;;;;;;4992698;28;20204;-72
2023/05/19 09:53:01;;;;;;;5.73;5.23;;;16.70;99.90;;;;;;4981609;28;20640;-72
2023/05/19 09:55:31;;;;;;;6.07;5.37;;;17.00;99.90;;;;;;4956053;28;20185;-73
2023/05/19 09:57:59;;;;;;;5.13;4.73;;;17.10;99.90;;;;;;4973095;28;20193;-72
2023/05/19 10:00:26;;;;;;;6.03;5.43;;;17.30;99.90;;;;;;4973313;28;20553;-72
2023/05/19 10:02:52;;;;;;;9.97;4.53;;;17.40;99.90;;;;;;4982515;28;20185;-72
2023/05/19 10:05:19;;;;;;;7.60;5.20;;;17.40;99.90;;;;;;4992014;28;20250;-72
2023/05/19 10:07:48;;;;;;;7.77;6.97;;;17.40;99.90;;;;;;4991914;28;20192;-73
2023/05/19 10:10:14;;;;;;;10.03;7.17;;;17.50;99.90;;;;;;4992441;28;20259;-72
2023/05/19 10:12:41;;;;;;;11.07;9.97;;;17.60;99.90;;;;;;4984470;28;20280;-72
2023/05/19 10:15:12;;;;;;;6.67;4.87;;;17.40;99.90;;;;;;4972664;28;20220;-72
2023/05/19 10:17:39;;;;;;;4.80;4.40;;;16.90;99.90;;;;;;4972432;28;20205;-72
2023/05/19 10:20:13;;;;;;;6.27;4.43;;;17.10;99.90;;;;;;4972917;28;20185;-73
2023/05/19 10:22:40;;;;;;;5.43;5.00;;;17.30;99.90;;;;;;4979971;28;20180;-72
2023/05/19 10:25:07;;;;;;;4.47;4.03;;;17.20;99.90;;;;;;4992030;28;20287;-72
2023/05/19 10:27:36;;;;;;;5.00;4.57;;;16.60;99.90;;;;;;4991868;28;20187;-72
2023/05/19 10:30:09;;;;;;;5.53;5.10;;;16.30;99.90;;;;;;4992197;28;20243;-72
2023/05/19 10:32:38;;;;;;;10.27;7.63;;;16.10;99.90;;;;;;4967874;28;20209;-72
2023/05/19 10:35:09;;;;;;;11.63;10.63;;;15.90;99.90;;;;;;4972502;28;20197;-72
2023/05/19 10:37:58;;;;;;;12.57;11.97;;;15.80;99.90;;;;;;4955038;28;20177;-73
2023/05/19 10:40:27;;;;;;;15.07;13.73;;;15.70;99.90;;;;;;4972501;28;20653;-72
2023/05/19 10:43:03;;;;;;;15.23;14.07;;;15.70;99.90;;;;;;4981148;28;20187;-72
2023/05/19 10:45:38;;;;;;;15.13;14.13;;;15.90;99.90;;;;;;4974308;28;20660;-72
2023/05/19 10:48:04;;;;;;;13.17;12.23;;;15.90;99.90;;;;;;4974700;28;20187;-72
2023/05/19 10:50:36;;;;;;;12.37;11.47;;;16.00;99.90;;;;;;4991756;28;20176;-72
2023/05/19 10:53:02;;;;;;;12.30;11.60;;;16.00;99.90;;;;;;4981827;28;20231;-74
2023/05/19 10:55:49;;;;;;;13.73;12.93;;;15.90;99.90;;;;;;4972208;28;20588;-72
2023/05/19 10:58:34;;;;;;;13.83;13.03;;;15.90;99.90;;;;;;4972084;28;20213;-73
2023/05/19 11:01:00;;;;;;;12.77;11.67;;;16.30;99.90;;;;;;4972436;28;20192;-73
2023/05/19 11:03:27;;;;;;;11.67;10.77;;;16.40;99.90;;;;;;4984746;28;20204;-72
2023/05/19 11:06:27;;;;;;;13.43;12.33;;;16.40;99.90;;;;;;4974600;28;20596;-73
2023/05/19 11:09:01;;;;;;;11.57;10.43;;;16.20;99.90;;;;;;4974142;28;20792;-73
2023/05/19 11:12:02;;;;;;;12.03;10.57;;;16.40;99.90;;;;;;4991571;28;20258;-73
2023/05/19 11:14:29;;;;;;;11.50;10.40;;;16.40;99.90;;;;;;4912051;29;20214;-72
2023/05/19 11:16:59;;;;;;;14.67;13.13;;;16.20;99.90;;;;;;4943234;28;20321;-72
2023/05/19 11:19:29;;;;;;;14.10;11.97;;;16.20;99.90;;;;;;4972175;28;20533;-73
2023/05/19 11:22:06;;;;;;;13.40;12.20;;;16.40;99.90;;;;;;4974658;28;20192;-73
2023/05/19 11:24:36;;;;;;;12.43;11.37;;;16.70;99.90;;;;;;4992973;28;20208;-73
2023/05/19 11:27:25;;;;;;;7.83;6.83;;;16.90;99.90;;;;;;4975360;28;20188;-72
2023/05/19 11:29:51;;;;;;;7.30;6.70;;;16.80;99.90;;;;;;4992016;28;20188;-72
2023/05/19 11:32:20;;;;;;;10.57;9.73;;;16.70;99.90;;;;;;4970701;28;20204;-73
2023/05/19 11:34:48;;;;;;;8.53;7.53;;;16.70;99.90;;;;;;4971885;28;20197;-72
2023/05/19 11:37:13;;;;;;;8.20;6.63;;;16.60;99.90;;;;;;4954455;28;20720;-73
2023/05/19 11:39:40;;;;;;;8.30;5.97;;;16.70;99.90;;;;;;4971836;28;20185;-73
2023/05/19 11:42:09;;;;;;;9.70;7.37;;;16.60;99.90;;;;;;4955873;28;20620;-73
2023/05/19 11:44:34;;;;;;;10.07;9.27;;;16.60;99.90;;;;;;4973877;28;20219;-72
2023/05/19 11:47:00;;;;;;;7.23;6.60;;;16.70;99.90;;;;;;4990918;28;20652;-72
2023/05/19 11:49:28;;;;;;;7.07;6.37;;;16.70;99.90;;;;;;4973885;28;20189;-72
2023/05/19 11:51:54;;;;;;;10.77;7.27;;;16.70;99.90;;;;;;4991340;28;20553;-73
2023/05/19 11:54:20;;;;;;;9.30;7.17;;;16.70;99.90;;;;;;4971940;28;20216;-73
2023/05/19 11:56:46;;;;;;;11.87;7.13;;;16.80;99.90;;;;;;4956078;28;20181;-72
2023/05/19 11:59:12;;;;;;;13.00;6.40;;;16.90;99.90;;;;;;4975133;28;20188;-73
2023/05/19 12:01:38;;;;;;;6.83;6.17;;;16.90;99.90;;;;;;4975440;28;20181;-73
2023/05/19 12:04:09;;;;;;;14.90;5.90;;;17.00;99.90;;;;;;4991700;28;20704;-72
2023/05/19 12:06:35;;;;;;;7.07;5.07;;;17.10;99.90;;;;;;4977333;28;20188;-72
2023/05/19 12:09:04;;;;;;;6.43;5.57;;;17.10;99.90;;;;;;4994291;28;20707;-72
2023/05/19 12:11:30;;;;;;;7.80;5.43;;;17.10;99.90;;;;;;4994547;28;20211;-72
2023/05/19 12:14:00;;;;;;;7.07;5.27;;;17.20;99.90;;;;;;4978794;28;20299;-73
2023/05/19 12:16:35;;;;;;;6.60;4.93;;;17.30;99.90;;;;;;4975029;28;20683;-71
2023/05/19 12:19:04;;;;;;;7.40;5.73;;;17.50;99.90;;;;;;4974567;28;20203;-72
2023/05/19 12:21:30;;;;;;;10.67;5.57;;;17.50;99.90;;;;;;4974863;28;20185;-71
2023/05/19 12:23:57;;;;;;;9.30;5.23;;;17.40;99.90;;;;;;4972437;28;20577;-71
2023/05/19 12:26:23;;;;;;;10.13;5.07;;;17.10;99.90;;;;;;4975437;28;20193;-71
2023/05/19 12:28:50;;;;;;;6.70;4.60;;;17.00;99.90;;;;;;4974627;28;20185;-72
2023/05/19 12:31:16;;;;;;;12.20;6.00;;;17.10;99.90;;;;;;4957719;28;20204;-71
2023/05/19 12:33:42;;;;;;;9.83;5.27;;;17.10;99.90;;;;;;4988167;28;20208;-71
2023/05/19 12:36:09;;;;;;;10.23;6.33;;;17.00;99.90;;;;;;4994627;28;20185;-71
2023/05/19 12:38:38;;;;;;;9.90;8.53;;;16.50;99.90;;;;;;4993870;28;20836;-71
2023/05/19 12:41:05;;;;;;;10.83;8.33;;;16.40;99.90;;;;;;4994046;28;20238;-72
2023/05/19 12:43:32;;;;;;;10.17;9.27;;;16.50;99.90;;;;;;4982396;28;20292;-72
2023/05/19 12:45:58;;;;;;;7.90;7.30;;;16.60;99.90;;;;;;4974570;28;20238;-71
2023/05/19 12:48:23;;;;;;;8.93;8.23;;;16.60;99.90;;;;;;4974093;28;20216;-74
2023/05/19 12:50:54;;;;;;;7.13;5.97;;;16.80;99.90;;;;;;4957393;28;20251;-73
2023/05/19 12:53:20;;;;;;;7.33;4.60;;;17.10;99.90;;;;;;4984081;28;20205;-74
2023/05/19 12:55:45;;;;;;;5.53;4.77;;;17.40;99.90;;;;;;4976979;28;20199;-73
2023/05/19 12:58:12;;;;;;;7.73;5.80;;;17.50;99.90;;;;;;4994263;28;20188;-73
2023/05/19 13:00:43;;;;;;;9.27;7.93;;;17.60;99.90;;;;;;4993777;28;20180;-73
2023/05/19 13:03:16;;;;;;;13.93;12.73;;;17.90;99.90;;;;;;4985319;28;20279;-73
2023/05/19 13:05:43;;;;;;;13.47;12.47;;;17.80;99.90;;;;;;4957071;28;20196;-73
2023/05/19 13:08:11;;;;;;;13.27;12.27;;;17.70;99.90;;;;;;4973134;28;20237;-74
2023/05/19 13:10:38;;;;;;;12.70;11.40;;;17.60;99.90;;;;;;4974729;28;20236;-72
2023/05/19 13:13:05;;;;;;;14.17;13.27;;;17.80;99.90;;;;;;4982501;28;20199;-72
2023/05/19 13:15:34;;;;;;;14.53;13.10;;;17.90;99.90;;;;;;4995367;28;20188;-74
2023/05/19 13:18:11;;;;;;;12.30;11.30;;;17.80;99.90;;;;;;4993197;28;20180;-71
2023/05/19 13:20:39;;;;;;;11.30;10.20;;;17.60;99.90;;;;;;4993448;28;20211;-72
2023/05/19 13:23:05;;;;;;;7.37;6.07;;;17.40;99.90;;;;;;4986207;28;20201;-72
2023/05/19 13:25:34;;;;;;;7.07;5.83;;;17.30;99.90;;;;;;4956545;28;20185;-72
2023/05/19 13:28:04;;;;;;;9.60;6.57;;;17.20;99.90;;;;;;4956268;28;20212;-73
2023/05/19 13:30:30;;;;;;;7.97;7.23;;;17.30;99.90;;;;;;4973732;28;20649;-73
2023/05/19 13:32:56;;;;;;;10.07;9.03;;;17.60;99.90;;;;;;4978939;28;20550;-73
2023/05/19 13:35:22;;;;;;;10.00;9.10;;;17.70;99.90;;;;;;4993036;28;20208;-73
2023/05/19 13:37:48;;;;;;;12.30;9.20;;;17.60;99.90;;;;;;4992623;28;20215;-73
2023/05/19 13:40:15;;;;;;;9.97;9.07;;;17.50;99.90;;;;;;4993058;28;20180;-73
2023/05/19 13:42:41;;;;;;;10.80;10.00;;;17.50;99.90;;;;;;4989345;28;20254;-73
2023/05/19 13:45:08;;;;;;;16.10;14.80;;;17.80;99.90;;;;;;4956343;28;20209;-72
2023/05/19 13:47:34;;;;;;;17.00;15.77;;;18.10;99.90;;;;;;4973239;28;20203;-72
2023/05/19 13:50:01;;;;;;;11.97;10.93;;;18.40;99.90;;;;;;4973478;28;20193;-73
2023/05/19 13:52:27;;;;;;;11.33;10.37;;;18.50;99.90;;;;;;4974482;28;20243;-72
2023/05/19 13:54:53;;;;;;;9.77;9.07;;;18.50;99.90;;;;;;4975286;28;20208;-72
2023/05/19 13:57:19;;;;;;;15.00;13.83;;;18.20;99.90;;;;;;4975076;28;20188;-72
2023/05/19 13:59:45;;;;;;;16.10;14.60;;;17.90;99.90;;;;;;4975505;28;20184;-73
2023/05/19 14:02:11;;;;;;;16.47;15.27;;;18.00;99.90;;;;;;4975339;28;20188;-73
2023/05/19 14:04:38;;;;;;;14.70;13.50;;;18.20;99.90;;;;;;4973752;28;20216;-72
2023/05/19 14:07:05;;;;;;;13.53;12.53;;;18.00;99.90;;;;;;4972810;28;20208;-73
2023/05/19 14:09:31;;;;;;;13.13;11.97;;;17.70;99.90;;;;;;4972885;28;20668;-72
2023/05/19 14:11:57;;;;;;;10.27;9.30;;;17.40;99.90;;;;;;4972848;28;20304;-72
2023/05/19 14:14:23;;;;;;;7.57;6.83;;;17.30;99.90;;;;;;4974029;28;20312;-72
2023/05/19 14:16:49;;;;;;;8.80;7.97;;;17.40;99.90;;;;;;4972851;28;20555;-73
2023/05/19 14:19:15;;;;;;;8.83;8.07;;;17.50;99.90;;;;;;4955310;28;20196;-73
2023/05/19 14:21:41;;;;;;;8.90;8.00;;;17.50;99.90;;;;;;4955785;28;20393;-72
2023/05/19 14:24:07;;;;;;;8.30;6.57;;;17.50;99.90;;;;;;4986964;28;20252;-72
2023/05/19 14:26:32;;;;;;;7.93;7.10;;;17.40;99.90;;;;;;4992569;28;20606;-72
2023/05/19 14:28:58;;;;;;;8.73;7.90;;;17.40;99.90;;;;;;4991780;28;20242;-71
2023/05/19 14:31:24;;;;;;;9.07;8.40;;;17.40;99.90;;;;;;4992038;28;20263;-71
2023/05/19 14:33:51;;;;;;;10.37;6.83;;;17.40;99.90;;;;;;4978924;28;20258;-71
2023/05/19 14:36:17;;;;;;;8.50;5.63;;;17.30;99.90;;;;;;4984460;28;20180;-71
2023/05/19 14:38:42;;;;;;;7.37;6.40;;;17.30;99.90;;;;;;4991281;28;20238;-72
2023/05/19 14:41:08;;;;;;;6.73;6.13;;;17.40;99.90;;;;;;4987587;28;20249;-72
2023/05/19 14:43:34;;;;;;;9.20;6.90;;;17.50;99.90;;;;;;5001380;28;20200;-71
2023/05/19 14:46:00;;;;;;;7.37;6.77;;;17.60;99.90;;;;;;4991626;28;20176;-72
2023/05/19 14:48:25;;;;;;;9.67;8.67;;;17.60;99.90;;;;;;4991044;28;20212;-72
2023/05/19 14:50:52;;;;;;;8.83;7.97;;;17.70;99.90;;;;;;4991699;28;20706;-72
2023/05/19 14:53:17;;;;;;;8.47;7.73;;;17.70;99.90;;;;;;4997517;28;20234;-72
2023/05/19 14:55:46;;;;;;;11.83;7.50;;;17.60;99.90;;;;;;4991166;28;20602;-72
2023/05/19 14:58:12;;;;;;;7.03;5.80;;;17.50;99.90;;;;;;4991192;28;20180;-72
2023/05/19 15:00:38;;;;;;;7.93;6.20;;;17.40;99.90;;;;;;4991513;28;20188;-72
2023/05/19 15:03:04;;;;;;;7.83;6.80;;;17.50;99.90;;;;;;4984593;28;20181;-71
2023/05/19 15:05:31;;;;;;;8.97;7.23;;;17.70;99.90;;;;;;4999211;28;20176;-71
2023/05/19 15:07:56;;;;;;;9.90;9.07;;;17.80;99.90;;;;;;4983107;28;20176;-73
2023/05/19 15:10:23;;;;;;;8.23;7.53;;;17.50;99.90;;;;;;4954053;28;20212;-71
2023/05/19 15:12:49;;;;;;;8.00;6.47;;;17.50;99.90;;;;;;4980631;28;20184;-71
2023/05/19 15:15:16;;;;;;;6.63;5.93;;;17.50;99.90;;;;;;4990459;28;20694;-72
2023/05/19 15:17:42;;;;;;;6.53;5.90;;;17.40;99.90;;;;;;4973607;28;20583;-72
2023/05/19 15:20:08;;;;;;;6.97;5.97;;;17.50;99.90;;;;;;4991239;28;20242;-72
2023/05/19 15:22:34;;;;;;;9.73;6.57;;;17.70;99.90;;;;;;4973451;28;20621;-72
2023/05/19 15:24:59;;;;;;;9.70;9.00;;;17.80;99.90;;;;;;4971643;28;20295;-73
2023/05/19 15:27:26;;;;;;;10.03;9.23;;;17.90;99.90;;;;;;4990574;28;20204;-71
2023/05/19 15:29:51;;;;;;;14.67;13.57;;;18.00;99.90;;;;;;4990958;28;20183;-71
2023/05/19 15:32:17;;;;;;;16.83;15.70;;;18.10;99.90;;;;;;4993358;28;20223;-72
2023/05/19 15:34:43;;;;;;;16.27;15.37;;;18.10;99.90;;;;;;4960072;28;20197;-72
2023/05/19 15:37:09;;;;;;;16.50;15.30;;;18.30;99.90;;;;;;4975220;28;20205;-72